sensor_id;sensor_type;location;lat;lon;timestamp;temperature;humidity
13186;DHT22;6658;53.080;7.428;2024-02-23T00:02:10;6.20;99.90
13186;DHT22;6658;53.080;7.428;2024-02-23T00:04:35;6.20;99.90
13186;DHT22;6658;53.080;7.428;2024-02-23T00:07:10;6.20;99.90
13186;DHT22;6658;53.080;7.428;2024-02-23T00:09:39;6.10;99.90
13186;DHT22;6658;53.080;7.428;2024-02-23T00:12:05;6.10;99.90
13186;DHT22;6658;53.080;7.428;2024-02-23T00:14:32;6.00;99.90
13186;DHT22;6658;53.080;7.428;2024-02-23T00:16:58;6.00;99.90
13186;DHT22;6658;53.080;7.428;2024-02-23T00:19:24;6.00;99.90
13186;DHT22;6658;53.080;7.428;2024-02-23T00:21:50;6.00;99.90
13186;DHT22;6658;53.080;7.428;2024-02-23T00:24:18;5.90;99.90
13186;DHT22;6658;53.080;7.428;2024-02-23T00:26:46;5.90;99.90
13186;DHT22;6658;53.080;7.428;2024-02-23T00:29:12;5.90;99.90
13186;DHT22;6658;53.080;7.428;2024-02-23T00:31:41;5.90;99.90
13186;DHT22;6658;53.080;7.428;2024-02-23T00:34:10;5.90;99.90
13186;DHT22;6658;53.080;7.428;2024-02-23T00:36:38;5.90;99.90
13186;DHT22;6658;53.080;7.428;2024-02-23T00:39:04;5.90;99.90
13186;DHT22;6658;53.080;7.428;2024-02-23T00:41:30;5.90;99.90
13186;DHT22;6658;53.080;7.428;2024-02-23T00:43:56;5.80;99.90
13186;DHT22;6658;53.080;7.428;2024-02-23T00:46:21;5.80;99.90
13186;DHT22;6658;53.080;7.428;2024-02-23T00:48:47;5.80;99.90
13186;DHT22;6658;53.080;7.428;2024-02-23T00:51:13;5.80;99.90
13186;DHT22;6658;53.080;7.428;2024-02-23T00:53:38;5.80;99.90
13186;DHT22;6658;53.080;7.428;2024-02-23T00:56:04;5.80;99.90
13186;DHT22;6658;53.080;7.428;2024-02-23T00:58:30;5.80;99.90
13186;DHT22;6658;53.080;7.428;2024-02-23T01:00:56;5.80;99.90
13186;DHT22;6658;53.080;7.428;2024-02-23T01:03:22;5.80;99.90
13186;DHT22;6658;53.080;7.428;2024-02-23T01:05:48;5.80;99.90
13186;DHT22;6658;53.080;7.428;2024-02-23T01:08:14;5.90;99.90
13186;DHT22;6658;53.080;7.428;2024-02-23T01:10:40;5.90;99.90
13186;DHT22;6658;53.080;7.428;2024-02-23T01:13:06;5.90;99.90
13186;DHT22;6658;53.080;7.428;2024-02-23T01:15:31;5.90;99.90
13186;DHT22;6658;53.080;7.428;2024-02-23T01:17:57;5.80;99.90
13186;DHT22;6658;53.080;7.428;2024-02-23T01:20:23;5.80;99.90
13186;DHT22;6658;53.080;7.428;2024-02-23T01:22:48;5.70;99.90
13186;DHT22;6658;53.080;7.428;2024-02-23T01:25:14;5.70;99.90
13186;DHT22;6658;53.080;7.428;2024-02-23T01:27:41;5.60;99.90
13186;DHT22;6658;53.080;7.428;2024-02-23T01:30:07;5.50;99.90
13186;DHT22;6658;53.080;7.428;2024-02-23T01:32:33;5.40;99.90
13186;DHT22;6658;53.080;7.428;2024-02-23T01:34:59;5.40;99.90
13186;DHT22;6658;53.080;7.428;2024-02-23T01:37:25;5.20;99.90
13186;DHT22;6658;53.080;7.428;2024-02-23T01:39:50;5.10;99.90
13186;DHT22;6658;53.080;7.428;2024-02-23T01:42:16;4.90;99.90
13186;DHT22;6658;53.080;7.428;2024-02-23T01:44:43;4.70;99.90
13186;DHT22;6658;53.080;7.428;2024-02-23T01:47:08;4.60;99.90
13186;DHT22;6658;53.080;7.428;2024-02-23T01:49:35;4.50;99.90
13186;DHT22;6658;53.080;7.428;2024-02-23T01:52:02;4.40;99.90
13186;DHT22;6658;53.080;7.428;2024-02-23T01:54:29;4.30;99.90
13186;DHT22;6658;53.080;7.428;2024-02-23T01:56:56;4.30;99.90
13186;DHT22;6658;53.080;7.428;2024-02-23T01:59:23;4.30;99.90
13186;DHT22;6658;53.080;7.428;2024-02-23T02:01:49;4.40;99.90
13186;DHT22;6658;53.080;7.428;2024-02-23T02:04:15;4.40;99.90
13186;DHT22;6658;53.080;7.428;2024-02-23T02:06:41;4.50;99.90
13186;DHT22;6658;53.080;7.428;2024-02-23T02:09:07;4.50;99.90
13186;DHT22;6658;53.080;7.428;2024-02-23T02:11:33;4.50;99.90
13186;DHT22;6658;53.080;7.428;2024-02-23T02:13:58;4.60;99.90
13186;DHT22;6658;53.080;7.428;2024-02-23T02:16:24;4.60;99.90
13186;DHT22;6658;53.080;7.428;2024-02-23T02:18:50;4.60;99.90
13186;DHT22;6658;53.080;7.428;2024-02-23T02:21:16;4.60;99.90
13186;DHT22;6658;53.080;7.428;2024-02-23T02:23:42;4.70;99.90
13186;DHT22;6658;53.080;7.428;2024-02-23T02:26:08;4.70;99.90
13186;DHT22;6658;53.080;7.428;2024-02-23T02:28:33;4.70;99.90
13186;DHT22;6658;53.080;7.428;2024-02-23T02:30:59;4.80;99.90
13186;DHT22;6658;53.080;7.428;2024-02-23T02:33:25;4.80;99.90
13186;DHT22;6658;53.080;7.428;2024-02-23T02:35:54;4.80;99.90
13186;DHT22;6658;53.080;7.428;2024-02-23T02:38:20;4.90;99.90
13186;DHT22;6658;53.080;7.428;2024-02-23T02:40:45;5.00;99.90
13186;DHT22;6658;53.080;7.428;2024-02-23T02:43:11;5.10;99.90
13186;DHT22;6658;53.080;7.428;2024-02-23T02:45:37;5.10;99.90
13186;DHT22;6658;53.080;7.428;2024-02-23T02:48:03;5.20;99.90
13186;DHT22;6658;53.080;7.428;2024-02-23T02:50:29;5.30;99.90
13186;DHT22;6658;53.080;7.428;2024-02-23T02:52:54;5.30;99.90
13186;DHT22;6658;53.080;7.428;2024-02-23T02:55:20;5.30;99.90
13186;DHT22;6658;53.080;7.428;2024-02-23T02:57:46;5.30;99.90
13186;DHT22;6658;53.080;7.428;2024-02-23T03:00:12;5.30;99.90
13186;DHT22;6658;53.080;7.428;2024-02-23T03:02:38;5.30;99.90
13186;DHT22;6658;53.080;7.428;2024-02-23T03:05:04;5.40;99.90
13186;DHT22;6658;53.080;7.428;2024-02-23T03:07:30;5.40;99.90
13186;DHT22;6658;53.080;7.428;2024-02-23T03:09:58;5.40;99.90
13186;DHT22;6658;53.080;7.428;2024-02-23T03:12:27;5.50;99.90
13186;DHT22;6658;53.080;7.428;2024-02-23T03:14:52;5.50;99.90
13186;DHT22;6658;53.080;7.428;2024-02-23T03:17:18;5.50;99.90
13186;DHT22;6658;53.080;7.428;2024-02-23T03:19:44;5.50;99.90
13186;DHT22;6658;53.080;7.428;2024-02-23T03:22:10;5.60;99.90
13186;DHT22;6658;53.080;7.428;2024-02-23T03:24:36;5.60;99.90
13186;DHT22;6658;53.080;7.428;2024-02-23T03:27:01;5.70;99.90
13186;DHT22;6658;53.080;7.428;2024-02-23T03:29:27;5.70;99.90
13186;DHT22;6658;53.080;7.428;2024-02-23T03:32:01;5.70;99.90
13186;DHT22;6658;53.080;7.428;2024-02-23T03:34:27;5.80;99.90
13186;DHT22;6658;53.080;7.428;2024-02-23T03:36:52;5.80;99.90
13186;DHT22;6658;53.080;7.428;2024-02-23T03:39:18;5.80;99.90
13186;DHT22;6658;53.080;7.428;2024-02-23T03:41:44;5.80;99.90
13186;DHT22;6658;53.080;7.428;2024-02-23T03:44:09;5.70;99.90
13186;DHT22;6658;53.080;7.428;2024-02-23T03:46:35;5.70;99.90
13186;DHT22;6658;53.080;7.428;2024-02-23T03:49:01;5.60;99.90
13186;DHT22;6658;53.080;7.428;2024-02-23T03:51:27;5.50;99.90
13186;DHT22;6658;53.080;7.428;2024-02-23T03:53:52;5.40;99.90
13186;DHT22;6658;53.080;7.428;2024-02-23T03:56:18;5.40;99.90
13186;DHT22;6658;53.080;7.428;2024-02-23T03:58:44;5.40;99.90
13186;DHT22;6658;53.080;7.428;2024-02-23T04:01:09;5.50;99.90
13186;DHT22;6658;53.080;7.428;2024-02-23T04:03:35;5.40;99.90
13186;DHT22;6658;53.080;7.428;2024-02-23T04:06:01;5.40;99.90
13186;DHT22;6658;53.080;7.428;2024-02-23T04:08:27;5.30;99.90
13186;DHT22;6658;53.080;7.428;2024-02-23T04:10:53;5.20;99.90
13186;DHT22;6658;53.080;7.428;2024-02-23T04:13:19;5.20;99.90
13186;DHT22;6658;53.080;7.428;2024-02-23T04:15:45;5.10;99.90
13186;DHT22;6658;53.080;7.428;2024-02-23T04:18:11;5.10;99.90
13186;DHT22;6658;53.080;7.428;2024-02-23T04:20:37;5.00;99.90
13186;DHT22;6658;53.080;7.428;2024-02-23T04:23:02;4.90;99.90
13186;DHT22;6658;53.080;7.428;2024-02-23T04:25:28;4.90;99.90
13186;DHT22;6658;53.080;7.428;2024-02-23T04:27:54;4.90;99.90
13186;DHT22;6658;53.080;7.428;2024-02-23T04:30:20;4.90;99.90
13186;DHT22;6658;53.080;7.428;2024-02-23T04:32:45;4.90;99.90
13186;DHT22;6658;53.080;7.428;2024-02-23T04:35:11;4.90;99.90
13186;DHT22;6658;53.080;7.428;2024-02-23T04:37:37;4.80;99.90
13186;DHT22;6658;53.080;7.428;2024-02-23T04:40:05;4.80;99.90
13186;DHT22;6658;53.080;7.428;2024-02-23T04:42:32;4.90;99.90
13186;DHT22;6658;53.080;7.428;2024-02-23T04:44:58;4.90;99.90
13186;DHT22;6658;53.080;7.428;2024-02-23T04:47:23;4.90;99.90
13186;DHT22;6658;53.080;7.428;2024-02-23T04:49:49;4.90;99.90
13186;DHT22;6658;53.080;7.428;2024-02-23T04:52:15;4.90;99.90
13186;DHT22;6658;53.080;7.428;2024-02-23T04:54:41;4.90;99.90
13186;DHT22;6658;53.080;7.428;2024-02-23T04:57:06;5.00;99.90
13186;DHT22;6658;53.080;7.428;2024-02-23T04:59:32;5.00;99.90
13186;DHT22;6658;53.080;7.428;2024-02-23T05:01:58;4.90;99.90
13186;DHT22;6658;53.080;7.428;2024-02-23T05:04:24;4.90;99.90
13186;DHT22;6658;53.080;7.428;2024-02-23T05:06:52;4.90;99.90
13186;DHT22;6658;53.080;7.428;2024-02-23T05:09:18;4.90;99.90
13186;DHT22;6658;53.080;7.428;2024-02-23T05:11:44;4.90;99.90
13186;DHT22;6658;53.080;7.428;2024-02-23T05:14:11;4.90;99.90
13186;DHT22;6658;53.080;7.428;2024-02-23T05:16:37;4.90;99.90
13186;DHT22;6658;53.080;7.428;2024-02-23T05:19:03;4.90;99.90
13186;DHT22;6658;53.080;7.428;2024-02-23T05:21:28;4.90;99.90
13186;DHT22;6658;53.080;7.428;2024-02-23T05:23:54;5.00;99.90
13186;DHT22;6658;53.080;7.428;2024-02-23T05:26:20;5.00;99.90
13186;DHT22;6658;53.080;7.428;2024-02-23T05:28:45;5.00;99.90
13186;DHT22;6658;53.080;7.428;2024-02-23T05:31:11;5.00;99.90
13186;DHT22;6658;53.080;7.428;2024-02-23T05:33:37;5.10;99.90
13186;DHT22;6658;53.080;7.428;2024-02-23T05:36:04;5.10;99.90
13186;DHT22;6658;53.080;7.428;2024-02-23T05:38:30;5.10;99.90
13186;DHT22;6658;53.080;7.428;2024-02-23T05:40:56;5.20;99.90
13186;DHT22;6658;53.080;7.428;2024-02-23T05:43:22;5.20;99.90
13186;DHT22;6658;53.080;7.428;2024-02-23T05:45:48;5.30;99.90
13186;DHT22;6658;53.080;7.428;2024-02-23T05:48:13;5.30;99.90
13186;DHT22;6658;53.080;7.428;2024-02-23T05:50:39;5.30;99.90
13186;DHT22;6658;53.080;7.428;2024-02-23T05:53:08;5.40;99.90
13186;DHT22;6658;53.080;7.428;2024-02-23T05:55:34;5.40;99.90
13186;DHT22;6658;53.080;7.428;2024-02-23T05:57:59;5.30;99.90
13186;DHT22;6658;53.080;7.428;2024-02-23T06:00:25;5.30;99.90
13186;DHT22;6658;53.080;7.428;2024-02-23T06:02:51;5.40;99.90
13186;DHT22;6658;53.080;7.428;2024-02-23T06:05:16;5.40;99.90
13186;DHT22;6658;53.080;7.428;2024-02-23T06:07:42;5.40;99.90
13186;DHT22;6658;53.080;7.428;2024-02-23T06:10:08;5.50;99.90
13186;DHT22;6658;53.080;7.428;2024-02-23T06:12:34;5.60;99.90
13186;DHT22;6658;53.080;7.428;2024-02-23T06:15:00;5.60;99.90
13186;DHT22;6658;53.080;7.428;2024-02-23T06:17:29;5.60;99.90
13186;DHT22;6658;53.080;7.428;2024-02-23T06:19:54;5.70;99.90
13186;DHT22;6658;53.080;7.428;2024-02-23T06:22:23;5.70;99.90
13186;DHT22;6658;53.080;7.428;2024-02-23T06:24:50;5.70;99.90
13186;DHT22;6658;53.080;7.428;2024-02-23T06:27:16;5.70;99.90
13186;DHT22;6658;53.080;7.428;2024-02-23T06:29:41;5.70;99.90
13186;DHT22;6658;53.080;7.428;2024-02-23T06:32:07;5.70;99.90
13186;DHT22;6658;53.080;7.428;2024-02-23T06:34:33;5.70;99.90
13186;DHT22;6658;53.080;7.428;2024-02-23T06:36:59;5.70;99.90
13186;DHT22;6658;53.080;7.428;2024-02-23T06:39:27;5.70;99.90
13186;DHT22;6658;53.080;7.428;2024-02-23T06:41:56;5.60;99.90
13186;DHT22;6658;53.080;7.428;2024-02-23T06:44:23;5.60;99.90
13186;DHT22;6658;53.080;7.428;2024-02-23T06:46:49;5.50;99.90
13186;DHT22;6658;53.080;7.428;2024-02-23T06:49:17;5.50;99.90
13186;DHT22;6658;53.080;7.428;2024-02-23T06:51:43;5.50;99.90
13186;DHT22;6658;53.080;7.428;2024-02-23T06:54:09;5.50;99.90
13186;DHT22;6658;53.080;7.428;2024-02-23T06:56:35;5.40;99.90
13186;DHT22;6658;53.080;7.428;2024-02-23T06:59:02;5.40;99.90
13186;DHT22;6658;53.080;7.428;2024-02-23T07:01:28;5.40;99.90
13186;DHT22;6658;53.080;7.428;2024-02-23T07:03:56;5.40;99.90
13186;DHT22;6658;53.080;7.428;2024-02-23T07:06:22;5.40;99.90
13186;DHT22;6658;53.080;7.428;2024-02-23T07:08:51;5.50;99.90
13186;DHT22;6658;53.080;7.428;2024-02-23T07:11:16;5.50;99.90
13186;DHT22;6658;53.080;7.428;2024-02-23T07:13:45;5.60;99.90
13186;DHT22;6658;53.080;7.428;2024-02-23T07:16:11;5.70;99.90
13186;DHT22;6658;53.080;7.428;2024-02-23T17:07:24;7.30;99.90
13186;DHT22;6658;53.080;7.428;2024-02-23T17:09:50;7.30;99.90
13186;DHT22;6658;53.080;7.428;2024-02-23T17:12:16;7.30;99.90
13186;DHT22;6658;53.080;7.428;2024-02-23T17:14:47;7.30;99.90
13186;DHT22;6658;53.080;7.428;2024-02-23T17:17:13;7.30;99.90
13186;DHT22;6658;53.080;7.428;2024-02-23T17:19:39;7.30;99.90
13186;DHT22;6658;53.080;7.428;2024-02-23T17:22:06;7.40;99.90
13186;DHT22;6658;53.080;7.428;2024-02-23T17:24:32;7.40;99.90
13186;DHT22;6658;53.080;7.428;2024-02-23T17:26:57;7.40;99.90
13186;DHT22;6658;53.080;7.428;2024-02-23T17:29:25;7.40;99.90
13186;DHT22;6658;53.080;7.428;2024-02-23T17:31:51;7.40;99.90
13186;DHT22;6658;53.080;7.428;2024-02-23T17:34:16;7.40;99.90
13186;DHT22;6658;53.080;7.428;2024-02-23T17:36:42;7.40;99.90
13186;DHT22;6658;53.080;7.428;2024-02-23T17:39:11;7.40;99.90
13186;DHT22;6658;53.080;7.428;2024-02-23T17:41:37;7.50;99.90
13186;DHT22;6658;53.080;7.428;2024-02-23T17:44:03;7.40;99.90
13186;DHT22;6658;53.080;7.428;2024-02-23T17:46:29;7.40;99.90
13186;DHT22;6658;53.080;7.428;2024-02-23T17:48:55;7.40;99.90
13186;DHT22;6658;53.080;7.428;2024-02-23T17:51:21;7.30;99.90
13186;DHT22;6658;53.080;7.428;2024-02-23T17:53:46;7.20;99.90
13186;DHT22;6658;53.080;7.428;2024-02-23T17:56:12;7.10;99.90
13186;DHT22;6658;53.080;7.428;2024-02-23T17:58:38;7.10;99.90
13186;DHT22;6658;53.080;7.428;2024-02-23T18:01:04;7.00;99.90
13186;DHT22;6658;53.080;7.428;2024-02-23T18:03:29;6.90;99.90
13186;DHT22;6658;53.080;7.428;2024-02-23T18:05:56;6.80;99.90
13186;DHT22;6658;53.080;7.428;2024-02-23T18:08:22;6.80;99.90
13186;DHT22;6658;53.080;7.428;2024-02-23T18:10:48;6.70;99.90
13186;DHT22;6658;53.080;7.428;2024-02-23T18:13:14;6.70;99.90
13186;DHT22;6658;53.080;7.428;2024-02-23T18:15:40;6.60;99.90
13186;DHT22;6658;53.080;7.428;2024-02-23T18:18:06;6.50;99.90
13186;DHT22;6658;53.080;7.428;2024-02-23T18:20:31;6.40;99.90
13186;DHT22;6658;53.080;7.428;2024-02-23T18:22:57;6.40;99.90
13186;DHT22;6658;53.080;7.428;2024-02-23T18:25:23;6.30;99.90
13186;DHT22;6658;53.080;7.428;2024-02-23T18:27:49;6.30;99.90
13186;DHT22;6658;53.080;7.428;2024-02-23T18:30:15;6.20;99.90
13186;DHT22;6658;53.080;7.428;2024-02-23T18:32:41;6.10;99.90
13186;DHT22;6658;53.080;7.428;2024-02-23T18:35:08;6.00;99.90
13186;DHT22;6658;53.080;7.428;2024-02-23T18:37:35;6.00;99.90
13186;DHT22;6658;53.080;7.428;2024-02-23T18:40:01;5.90;99.90
13186;DHT22;6658;53.080;7.428;2024-02-23T18:42:27;6.00;99.90
13186;DHT22;6658;53.080;7.428;2024-02-23T18:44:54;5.90;99.90
13186;DHT22;6658;53.080;7.428;2024-02-23T18:47:22;5.90;99.90
13186;DHT22;6658;53.080;7.428;2024-02-23T18:49:48;5.90;99.90
13186;DHT22;6658;53.080;7.428;2024-02-23T18:52:14;5.90;99.90
13186;DHT22;6658;53.080;7.428;2024-02-23T18:54:41;5.90;99.90
13186;DHT22;6658;53.080;7.428;2024-02-23T18:57:06;6.00;99.90
13186;DHT22;6658;53.080;7.428;2024-02-23T18:59:32;6.00;99.90
13186;DHT22;6658;53.080;7.428;2024-02-23T19:01:58;6.10;99.90
13186;DHT22;6658;53.080;7.428;2024-02-23T19:04:23;6.20;99.90
13186;DHT22;6658;53.080;7.428;2024-02-23T19:06:50;6.20;99.90
13186;DHT22;6658;53.080;7.428;2024-02-23T19:09:17;6.30;99.90
13186;DHT22;6658;53.080;7.428;2024-02-23T19:11:43;6.30;99.90
13186;DHT22;6658;53.080;7.428;2024-02-23T19:14:08;6.40;99.90
13186;DHT22;6658;53.080;7.428;2024-02-23T19:16:34;6.40;99.90
13186;DHT22;6658;53.080;7.428;2024-02-23T19:19:00;6.50;99.90
13186;DHT22;6658;53.080;7.428;2024-02-23T19:21:29;6.50;99.90
13186;DHT22;6658;53.080;7.428;2024-02-23T19:23:55;6.60;99.90
13186;DHT22;6658;53.080;7.428;2024-02-23T19:26:22;6.60;99.90
13186;DHT22;6658;53.080;7.428;2024-02-23T19:28:48;6.70;99.90
13186;DHT22;6658;53.080;7.428;2024-02-23T19:31:14;6.80;99.90
13186;DHT22;6658;53.080;7.428;2024-02-23T19:33:41;6.80;99.90
13186;DHT22;6658;53.080;7.428;2024-02-23T19:36:08;6.80;99.90
13186;DHT22;6658;53.080;7.428;2024-02-23T19:38:36;6.90;99.90
13186;DHT22;6658;53.080;7.428;2024-02-23T19:41:04;6.90;99.90
13186;DHT22;6658;53.080;7.428;2024-02-23T19:43:30;6.90;99.90
13186;DHT22;6658;53.080;7.428;2024-02-23T19:45:56;6.90;99.90
13186;DHT22;6658;53.080;7.428;2024-02-23T19:48:22;6.90;99.90
13186;DHT22;6658;53.080;7.428;2024-02-23T19:50:47;6.90;99.90
13186;DHT22;6658;53.080;7.428;2024-02-23T19:53:13;7.00;99.90
13186;DHT22;6658;53.080;7.428;2024-02-23T19:55:40;7.00;99.90
13186;DHT22;6658;53.080;7.428;2024-02-23T19:58:07;7.00;99.90
13186;DHT22;6658;53.080;7.428;2024-02-23T20:00:33;7.00;99.90
13186;DHT22;6658;53.080;7.428;2024-02-23T20:02:59;7.00;99.90
13186;DHT22;6658;53.080;7.428;2024-02-23T20:05:25;7.00;99.90
13186;DHT22;6658;53.080;7.428;2024-02-23T20:07:54;7.00;99.90
13186;DHT22;6658;53.080;7.428;2024-02-23T20:10:20;7.00;99.90
13186;DHT22;6658;53.080;7.428;2024-02-23T20:12:46;7.00;99.90
13186;DHT22;6658;53.080;7.428;2024-02-23T20:15:14;7.00;99.90
13186;DHT22;6658;53.080;7.428;2024-02-23T20:17:39;6.90;99.90
13186;DHT22;6658;53.080;7.428;2024-02-23T20:20:06;7.00;99.90
13186;DHT22;6658;53.080;7.428;2024-02-23T20:22:32;7.00;99.90
13186;DHT22;6658;53.080;7.428;2024-02-23T20:24:58;6.90;99.90
13186;DHT22;6658;53.080;7.428;2024-02-23T20:27:23;6.90;99.90
13186;DHT22;6658;53.080;7.428;2024-02-23T20:29:49;6.80;99.90
13186;DHT22;6658;53.080;7.428;2024-02-23T20:32:15;6.80;99.90
13186;DHT22;6658;53.080;7.428;2024-02-23T20:34:41;6.80;99.90
13186;DHT22;6658;53.080;7.428;2024-02-23T20:37:06;6.80;99.90
13186;DHT22;6658;53.080;7.428;2024-02-23T20:39:33;6.80;99.90
13186;DHT22;6658;53.080;7.428;2024-02-23T20:41:59;6.80;99.90
13186;DHT22;6658;53.080;7.428;2024-02-23T20:44:25;6.80;99.90
13186;DHT22;6658;53.080;7.428;2024-02-23T20:46:50;6.80;99.90
13186;DHT22;6658;53.080;7.428;2024-02-23T20:49:16;6.80;99.90
13186;DHT22;6658;53.080;7.428;2024-02-23T20:51:42;6.90;99.90
13186;DHT22;6658;53.080;7.428;2024-02-23T20:54:13;6.90;99.90
13186;DHT22;6658;53.080;7.428;2024-02-23T20:56:39;6.90;99.90
13186;DHT22;6658;53.080;7.428;2024-02-23T20:59:05;6.80;99.90
13186;DHT22;6658;53.080;7.428;2024-02-23T21:01:30;6.80;99.90
13186;DHT22;6658;53.080;7.428;2024-02-23T21:03:56;6.70;99.90
13186;DHT22;6658;53.080;7.428;2024-02-23T21:06:25;6.60;99.90
13186;DHT22;6658;53.080;7.428;2024-02-23T21:08:50;6.50;99.90
13186;DHT22;6658;53.080;7.428;2024-02-23T21:11:16;6.40;99.90
13186;DHT22;6658;53.080;7.428;2024-02-23T21:13:42;6.40;99.90
13186;DHT22;6658;53.080;7.428;2024-02-23T21:16:08;6.40;99.90
13186;DHT22;6658;53.080;7.428;2024-02-23T21:18:33;6.40;99.90
13186;DHT22;6658;53.080;7.428;2024-02-23T21:20:59;6.40;99.90
13186;DHT22;6658;53.080;7.428;2024-02-23T21:23:25;6.50;99.90
13186;DHT22;6658;53.080;7.428;2024-02-23T21:25:51;6.50;99.90
13186;DHT22;6658;53.080;7.428;2024-02-23T21:28:16;6.60;99.90
13186;DHT22;6658;53.080;7.428;2024-02-23T21:30:43;6.60;99.90
13186;DHT22;6658;53.080;7.428;2024-02-23T21:33:13;6.70;99.90
13186;DHT22;6658;53.080;7.428;2024-02-23T21:35:39;6.70;99.90
13186;DHT22;6658;53.080;7.428;2024-02-23T21:38:05;6.80;99.90
13186;DHT22;6658;53.080;7.428;2024-02-23T21:40:33;6.80;99.90
13186;DHT22;6658;53.080;7.428;2024-02-23T21:42:59;6.80;99.90
13186;DHT22;6658;53.080;7.428;2024-02-23T21:45:25;6.80;99.90
13186;DHT22;6658;53.080;7.428;2024-02-23T21:47:50;6.80;99.90
13186;DHT22;6658;53.080;7.428;2024-02-23T21:50:16;6.80;99.90
13186;DHT22;6658;53.080;7.428;2024-02-23T21:52:44;6.80;99.90
13186;DHT22;6658;53.080;7.428;2024-02-23T21:55:10;6.80;99.90
13186;DHT22;6658;53.080;7.428;2024-02-23T21:57:36;6.80;99.90
13186;DHT22;6658;53.080;7.428;2024-02-23T22:00:02;6.80;99.90
13186;DHT22;6658;53.080;7.428;2024-02-23T22:02:28;6.80;99.90
13186;DHT22;6658;53.080;7.428;2024-02-23T22:04:55;6.90;99.90
13186;DHT22;6658;53.080;7.428;2024-02-23T22:07:22;6.90;99.90
13186;DHT22;6658;53.080;7.428;2024-02-23T22:09:48;6.80;99.90
13186;DHT22;6658;53.080;7.428;2024-02-23T22:12:21;6.80;99.90
13186;DHT22;6658;53.080;7.428;2024-02-23T22:14:47;6.80;99.90
13186;DHT22;6658;53.080;7.428;2024-02-23T22:17:13;6.80;99.90
13186;DHT22;6658;53.080;7.428;2024-02-23T22:19:39;6.80;99.90
13186;DHT22;6658;53.080;7.428;2024-02-23T22:22:04;6.80;99.90
13186;DHT22;6658;53.080;7.428;2024-02-23T22:24:30;6.70;99.90
13186;DHT22;6658;53.080;7.428;2024-02-23T22:26:56;6.60;99.90
13186;DHT22;6658;53.080;7.428;2024-02-23T22:29:22;6.50;99.90
13186;DHT22;6658;53.080;7.428;2024-02-23T22:31:47;6.40;99.90
13186;DHT22;6658;53.080;7.428;2024-02-23T22:34:13;6.30;99.90
13186;DHT22;6658;53.080;7.428;2024-02-23T22:36:39;6.20;99.90
13186;DHT22;6658;53.080;7.428;2024-02-23T22:39:04;6.10;99.90
13186;DHT22;6658;53.080;7.428;2024-02-23T22:41:30;6.00;99.90
13186;DHT22;6658;53.080;7.428;2024-02-23T22:43:58;5.90;99.90
13186;DHT22;6658;53.080;7.428;2024-02-23T22:46:26;5.80;99.90
13186;DHT22;6658;53.080;7.428;2024-02-23T22:48:52;5.70;99.90
13186;DHT22;6658;53.080;7.428;2024-02-23T22:51:17;5.70;99.90
13186;DHT22;6658;53.080;7.428;2024-02-23T22:53:43;5.60;99.90
13186;DHT22;6658;53.080;7.428;2024-02-23T22:56:09;5.60;99.90
13186;DHT22;6658;53.080;7.428;2024-02-23T22:58:34;5.60;99.90
13186;DHT22;6658;53.080;7.428;2024-02-23T23:01:00;5.50;99.90
13186;DHT22;6658;53.080;7.428;2024-02-23T23:03:26;5.40;99.90
13186;DHT22;6658;53.080;7.428;2024-02-23T23:05:52;5.30;99.90
13186;DHT22;6658;53.080;7.428;2024-02-23T23:08:18;5.30;99.90
13186;DHT22;6658;53.080;7.428;2024-02-23T23:10:43;5.20;99.90
13186;DHT22;6658;53.080;7.428;2024-02-23T23:13:09;5.10;99.90
13186;DHT22;6658;53.080;7.428;2024-02-23T23:15:35;5.00;99.90
13186;DHT22;6658;53.080;7.428;2024-02-23T23:18:01;4.90;99.90
13186;DHT22;6658;53.080;7.428;2024-02-23T23:20:27;4.80;99.90
13186;DHT22;6658;53.080;7.428;2024-02-23T23:22:53;4.80;99.90
13186;DHT22;6658;53.080;7.428;2024-02-23T23:25:19;4.70;99.90
13186;DHT22;6658;53.080;7.428;2024-02-23T23:27:45;4.70;99.90
13186;DHT22;6658;53.080;7.428;2024-02-23T23:30:11;4.70;99.90
13186;DHT22;6658;53.080;7.428;2024-02-23T23:32:37;4.60;99.90
13186;DHT22;6658;53.080;7.428;2024-02-23T23:35:05;4.50;99.90
13186;DHT22;6658;53.080;7.428;2024-02-23T23:37:31;4.40;99.90
13186;DHT22;6658;53.080;7.428;2024-02-23T23:39:57;4.40;99.90
13186;DHT22;6658;53.080;7.428;2024-02-23T23:42:22;4.30;99.90
13186;DHT22;6658;53.080;7.428;2024-02-23T23:44:48;4.30;99.90
13186;DHT22;6658;53.080;7.428;2024-02-23T23:47:14;4.30;99.90
13186;DHT22;6658;53.080;7.428;2024-02-23T23:49:39;4.20;99.90
13186;DHT22;6658;53.080;7.428;2024-02-23T23:52:05;4.10;99.90
13186;DHT22;6658;53.080;7.428;2024-02-23T23:54:31;4.10;99.90
13186;DHT22;6658;53.080;7.428;2024-02-23T23:56:57;4.10;99.90
13186;DHT22;6658;53.080;7.428;2024-02-23T23:59:23;4.10;99.90
